createdAt,value
2022-08-17T00:00:43.678Z,99265.69
2022-08-17T00:05:50.348Z,99263.63
2022-08-17T00:10:53.480Z,99262.34
2022-08-17T00:15:59.784Z,99256.53
2022-08-17T00:21:04.698Z,99262.63
2022-08-17T00:26:12.704Z,99259.00
2022-08-17T00:31:16.031Z,99260.19
2022-08-17T00:36:18.298Z,99251.81
2022-08-17T00:41:23.867Z,99259.59
2022-08-17T00:46:32.240Z,99265.31
2022-08-17T00:51:56.036Z,99260.56
2022-08-17T00:57:02.546Z,99260.94
2022-08-17T01:02:06.273Z,99270.25
2022-08-17T01:07:08.502Z,99266.34
2022-08-17T01:12:12.138Z,99270.72
2022-08-17T01:17:14.113Z,99274.84
2022-08-17T01:22:19.045Z,99281.00
2022-08-17T01:27:21.444Z,99268.31
2022-08-17T01:32:23.558Z,99270.88
2022-08-17T01:37:37.757Z,99264.22
2022-08-17T01:43:00.180Z,99270.38
2022-08-17T01:48:02.041Z,99281.56
2022-08-17T01:53:27.532Z,99274.31
2022-08-17T01:58:29.479Z,99282.06
2022-08-17T02:03:32.098Z,99282.19
2022-08-17T02:08:39.268Z,99288.38
2022-08-17T02:14:02.396Z,99281.72
2022-08-17T02:19:13.376Z,99278.50
2022-08-17T02:24:58.812Z,99276.09
2022-08-17T02:29:42.096Z,99278.66
2022-08-17T02:34:43.965Z,99281.56
2022-08-17T02:39:46.125Z,99276.56
2022-08-17T02:44:48.105Z,99284.38
2022-08-17T02:49:54.358Z,99287.88
2022-08-17T02:54:57.793Z,99285.66
2022-08-17T02:59:59.456Z,99286.75
2022-08-17T03:05:01.143Z,99284.53
2022-08-17T03:10:04.142Z,99284.63
2022-08-17T03:15:09.484Z,99283.09
2022-08-17T03:20:13.147Z,99293.63
2022-08-17T03:25:22.720Z,99297.19
2022-08-17T03:30:25.949Z,99295.47
2022-08-17T03:35:31.434Z,99286.28
2022-08-17T03:40:55.920Z,99286.38
2022-08-17T03:46:34.698Z,99289.84
2022-08-17T03:51:53.869Z,99292.41
2022-08-17T03:57:05.940Z,99300.22
2022-08-17T04:02:21.568Z,99304.94
2022-08-17T04:07:28.482Z,99297.50
2022-08-17T04:12:43.877Z,99293.50
2022-08-17T04:17:46.003Z,99307.66
2022-08-17T04:23:02.753Z,99301.78
2022-08-17T04:28:07.602Z,99301.94
2022-08-17T04:33:21.892Z,99303.91
2022-08-17T04:38:26.222Z,99308.31
2022-08-17T04:43:29.235Z,99305.75
2022-08-17T04:48:37.061Z,99309.63
2022-08-17T04:53:44.985Z,99314.34
2022-08-17T04:58:50.153Z,99309.34
2022-08-17T05:03:54.574Z,99307.28
2022-08-17T05:08:57.746Z,99308.97
2022-08-17T05:13:59.586Z,99310.94
2022-08-17T05:19:02.625Z,99306.03
2022-08-17T05:24:12.855Z,99298.72
2022-08-17T05:29:35.093Z,99312.81
2022-08-17T05:34:37.789Z,99311.75
2022-08-17T05:39:40.022Z,99309.72
2022-08-17T05:44:41.805Z,99314.25
2022-08-17T05:49:43.840Z,99318.28
2022-08-17T05:55:05.137Z,99319.06
2022-08-17T06:00:07.927Z,99321.97
2022-08-17T06:05:32.964Z,99311.94
2022-08-17T06:10:43.568Z,99311.78
2022-08-17T06:16:01.870Z,99309.88
2022-08-17T06:21:07.205Z,99310.44
2022-08-17T06:26:27.602Z,99314.25
2022-08-17T06:31:40.781Z,99314.97
2022-08-17T06:36:45.529Z,99319.31
2022-08-17T06:42:06.780Z,99319.38
2022-08-17T06:47:28.839Z,99316.28
2022-08-17T06:52:47.137Z,99318.47
2022-08-17T06:57:53.712Z,99322.38
2022-08-17T07:03:06.689Z,99313.13
2022-08-17T07:08:20.082Z,99320.13
2022-08-17T07:13:21.760Z,99315.88
2022-08-17T07:18:26.614Z,99323.44
2022-08-17T07:23:47.406Z,99320.38
2022-08-17T07:28:49.917Z,99314.66
2022-08-17T07:34:14.423Z,99324.00
2022-08-17T07:39:26.959Z,99330.25
2022-08-17T07:44:28.914Z,99330.31
2022-08-17T07:49:31.129Z,99327.91
2022-08-17T07:54:37.114Z,99327.47
2022-08-17T07:59:43.340Z,99333.25
2022-08-17T08:05:06.755Z,99332.41
2022-08-17T08:10:38.885Z,99336.75
2022-08-17T08:15:54.754Z,99320.41
2022-08-17T08:21:07.245Z,99334.66
2022-08-17T08:26:37.228Z,99315.91
2022-08-17T08:32:18.261Z,99325.31
2022-08-17T08:37:34.741Z,99326.81
2022-08-17T08:42:48.861Z,99314.00
2022-08-17T08:47:53.805Z,99309.38
2022-08-17T08:53:07.861Z,99316.06
2022-08-17T08:58:32.165Z,99305.06
2022-08-17T09:04:20.002Z,99315.28
2022-08-17T09:09:49.612Z,99324.88
2022-08-17T09:15:03.182Z,99317.13
2022-08-17T09:20:27.557Z,99321.25
2022-08-17T09:25:34.277Z,99326.19
2022-08-17T09:30:49.885Z,99318.75
2022-08-17T09:35:59.513Z,99318.38
2022-08-17T09:41:13.080Z,99318.28
2022-08-17T09:46:18.266Z,99317.25
2022-08-17T09:51:55.239Z,99313.56
2022-08-17T09:57:29.757Z,99308.97
2022-08-17T10:02:44.514Z,99312.22
2022-08-17T10:08:02.464Z,99304.53
2022-08-17T10:13:28.289Z,99296.94
2022-08-17T10:18:37.667Z,99292.34
2022-08-17T10:23:58.650Z,99291.91
2022-08-17T10:29:09.493Z,99291.97
2022-08-17T10:34:19.853Z,99286.00
2022-08-17T10:39:35.241Z,99278.56
2022-08-17T10:45:20.032Z,99267.63
2022-08-17T10:50:47.654Z,99269.28
2022-08-17T10:56:14.605Z,99262.16
2022-08-17T11:01:17.557Z,99265.88
2022-08-17T11:06:42.525Z,99266.44
2022-08-17T11:12:00.905Z,99256.19
2022-08-17T11:17:14.647Z,99251.38
2022-08-17T11:22:34.238Z,99253.44
2022-08-17T11:27:36.592Z,99242.47
2022-08-17T11:32:54.560Z,99246.56
2022-08-17T11:38:16.346Z,99231.34
2022-08-17T11:43:55.150Z,99223.91
2022-08-17T11:49:29.024Z,99232.13
2022-08-17T11:54:33.660Z,99228.09
2022-08-17T11:59:45.948Z,99214.94
2022-08-17T12:05:21.143Z,99219.09
2022-08-17T12:10:31.966Z,99216.72
2022-08-17T12:15:42.545Z,99220.22
2022-08-17T12:20:56.103Z,99213.72
2022-08-17T12:26:11.946Z,99208.00
2022-08-17T12:31:24.458Z,99214.38
2022-08-17T12:36:28.404Z,99208.53
2022-08-17T12:41:42.546Z,99204.38
2022-08-17T12:46:46.899Z,99209.41
2022-08-17T12:51:50.214Z,99202.84
2022-08-17T12:56:51.982Z,99200.03
2022-08-17T13:01:53.888Z,99200.31
2022-08-17T13:06:59.852Z,99205.38
2022-08-17T13:12:02.156Z,99194.94
2022-08-17T13:17:08.578Z,99195.31
2022-08-17T13:22:12.940Z,99197.56
2022-08-17T13:27:15.351Z,99188.34
2022-08-17T13:32:23.042Z,99190.16
2022-08-17T13:37:29.626Z,99187.53
2022-08-17T13:42:52.282Z,99182.47
2022-08-17T13:48:11.892Z,99186.94
2022-08-17T13:53:40.391Z,99183.44
2022-08-17T13:58:55.255Z,99179.63
2022-08-17T14:03:58.714Z,99189.34
2022-08-17T14:09:04.801Z,99182.56
2022-08-17T14:14:06.684Z,99185.88
2022-08-17T14:19:11.668Z,99182.22
2022-08-17T14:24:41.309Z,99180.00
2022-08-17T14:29:47.681Z,99175.75
2022-08-17T14:34:50.390Z,99181.13
2022-08-17T14:39:57.338Z,99178.94
2022-08-17T14:45:00.203Z,99182.94
2022-08-17T14:50:04.308Z,99175.00
2022-08-17T14:55:13.102Z,99172.25
2022-08-17T15:00:16.871Z,99183.44
2022-08-17T15:05:19.295Z,99177.94
2022-08-17T15:10:21.408Z,99182.09
2022-08-17T15:15:23.803Z,99175.28
2022-08-17T15:20:29.584Z,99181.59
2022-08-17T15:25:32.983Z,99183.22
2022-08-17T15:30:35.821Z,99176.88
2022-08-17T15:35:37.464Z,99179.66
2022-08-17T15:40:50.653Z,99170.03
2022-08-17T15:46:12.391Z,99181.47
2022-08-17T15:51:17.626Z,99174.94
2022-08-17T15:56:19.948Z,99180.50
2022-08-17T16:03:13.586Z,99181.34
2022-08-17T16:06:45.783Z,99177.78
2022-08-17T16:11:53.718Z,99183.09
2022-08-17T16:16:59.135Z,99182.88
2022-08-17T16:22:01.030Z,99186.28
2022-08-17T16:27:04.137Z,99177.66
2022-08-17T16:32:21.822Z,99177.66
2022-08-17T16:37:34.229Z,99175.47
2022-08-17T16:42:37.990Z,99178.78
2022-08-17T16:47:40.333Z,99176.84
2022-08-17T16:52:42.360Z,99187.28
2022-08-17T16:57:47.604Z,99190.31
2022-08-17T17:02:54.566Z,99192.53
2022-08-17T17:08:03.352Z,99192.00
2022-08-17T17:13:17.111Z,99189.81
2022-08-17T17:18:23.018Z,99196.94
2022-08-17T17:23:27.705Z,99208.03
2022-08-17T17:28:29.281Z,99213.03
2022-08-17T17:34:00.386Z,99205.44
2022-08-17T17:39:23.218Z,99203.88
2022-08-17T17:44:32.928Z,99201.56
2022-08-17T17:49:38.436Z,99214.47
2022-08-17T17:54:52.293Z,99222.94
2022-08-17T18:00:08.807Z,99215.44
2022-08-17T18:05:26.988Z,99216.13
2022-08-17T18:10:45.085Z,99216.66
2022-08-17T18:15:54.190Z,99220.47
2022-08-17T18:21:05.136Z,99225.34
2022-08-17T18:26:06.905Z,99228.81
2022-08-17T18:31:19.150Z,99239.53
2022-08-17T18:36:37.411Z,99246.72
2022-08-17T18:41:45.245Z,99242.72
2022-08-17T18:46:46.926Z,99237.75
2022-08-17T18:51:48.559Z,99242.31
2022-08-17T18:56:50.189Z,99249.75
2022-08-17T19:02:27.363Z,99255.47
2022-08-17T19:07:39.064Z,99246.84
2022-08-17T19:12:46.168Z,99244.91
2022-08-17T19:17:55.151Z,99240.50
2022-08-17T19:23:10.100Z,99241.75
2022-08-17T19:28:34.790Z,99237.56
2022-08-17T19:33:37.545Z,99245.78
2022-08-17T19:39:00.842Z,99250.72
2022-08-17T19:44:34.715Z,99243.09
2022-08-17T19:50:14.860Z,99241.81
2022-08-17T19:55:32.033Z,99238.63
2022-08-17T20:00:42.024Z,99223.97
2022-08-17T20:11:24.981Z,99239.81
2022-08-17T20:16:27.065Z,99225.50
2022-08-17T20:21:38.293Z,99218.56
2022-08-17T20:26:59.838Z,99224.41
2022-08-17T20:32:01.964Z,99225.94
2022-08-17T20:37:11.012Z,99221.91
2022-08-17T20:42:15.523Z,99221.56
2022-08-17T20:47:26.932Z,99218.66
2022-08-17T20:52:50.872Z,99224.34
2022-08-17T20:57:52.753Z,99224.00
2022-08-17T21:03:26.715Z,99225.97
2022-08-17T21:08:53.147Z,99237.88
2022-08-17T21:14:23.296Z,99252.13
2022-08-17T21:20:07.635Z,99266.19
2022-08-17T21:25:20.693Z,99267.69
2022-08-17T21:30:46.701Z,99264.59
2022-08-17T21:35:50.772Z,99271.13
2022-08-17T21:40:53.459Z,99291.53
2022-08-17T21:46:03.735Z,99280.66
2022-08-17T21:51:13.918Z,99286.47
2022-08-17T21:56:30.292Z,99297.88
2022-08-17T22:01:39.041Z,99295.63
2022-08-17T22:06:57.286Z,99285.19
2022-08-17T22:12:12.335Z,99254.81
2022-08-17T22:17:26.113Z,99257.81
2022-08-17T22:23:18.099Z,99261.47
2022-08-17T22:28:56.489Z,99265.28
2022-08-17T22:33:59.766Z,99271.28
2022-08-17T22:39:10.580Z,99269.63
2022-08-17T22:44:29.619Z,99269.97
2022-08-17T22:50:02.221Z,99263.53
2022-08-17T22:55:35.361Z,99249.53
2022-08-17T23:00:37.447Z,99257.84
2022-08-17T23:05:43.485Z,99242.47
2022-08-17T23:10:46.562Z,99243.00
2022-08-17T23:15:51.008Z,99226.31
2022-08-17T23:20:53.529Z,99233.16
2022-08-17T23:25:55.392Z,99226.66
2022-08-17T23:30:57.035Z,99222.50
2022-08-17T23:35:58.852Z,99223.78
2022-08-17T23:41:05.882Z,99218.84
2022-08-17T23:46:07.522Z,99217.56
2022-08-17T23:51:17.444Z,99207.66
2022-08-17T23:56:25.966Z,99212.97
